This is the latest recevied weather packets stored in our database for station/object KG4K-13. If no packets are shown the sender has not sent any weather packets the latest 10 day(s).
| Time | Temp. | Humidity | Pressure | Rain* | Wind** | Luminosity | Snow |
|---|---|---|---|---|---|---|---|
| 1778092535 | 21.11° C | 77% | 1009.2 hPa | 0 mm | - | 410 W/m² | - |
| 1778091916 | 21.11° C | 77% | 1009.4 hPa | 0 mm | - | 441 W/m² | - |
| 1778088317 | 18.89° C | 84% | 1009.9 hPa | 0 mm | - | 271 W/m² | - |
| 1778084724 | 17.22° C | 91% | 1009.9 hPa | 1.02 mm | - | 444 W/m² | - |
| 1778079345 | 16.67° C | 91% | 1011.2 hPa | 5.84 mm | - | 114 W/m² | - |
| 1778077540 | 17.22° C | 87% | 1011.2 hPa | 2.54 mm | - | 118 W/m² | - |
| 1778075126 | 17.78° C | 80% | 1011.5 hPa | 0 mm | - | 107 W/m² | - |
| 1778073327 | 17.78° C | 81% | 1011.1 hPa | 0 mm | - | 92 W/m² | - |
| 1778072721 | 17.78° C | 80% | 1011 hPa | 0 mm | - | 148 W/m² | - |
| 1778071527 | 17.78° C | 80% | 1011.1 hPa | 0 mm | - | 83 W/m² | - |
| 1778065529 | 17.78° C | 82% | 1010.7 hPa | 0 mm | - | 43 W/m² | - |
| 1778064329 | 17.78° C | 82% | 1010.6 hPa | 0 mm | - | 33 W/m² | - |
| 1778063737 | 17.78° C | 82% | 1010.6 hPa | 0 mm | - | 34 W/m² | - |
| 1778062529 | 17.78° C | 82% | 1010.5 hPa | 0 mm | - | 9 W/m² | - |
| 1778061929 | 17.78° C | 82% | 1010.6 hPa | 0 mm | - | 3 W/m² | - |
| 1778059530 | 17.78° C | 80% | 1010.7 hPa | 0 mm | - | 0 W/m² | - |
| 1778058950 | 17.78° C | 81% | 1010.7 hPa | 0 mm | - | 0 W/m² | - |
| 1778058350 | 17.22° C | 82% | 1010.8 hPa | 0 mm | - | 0 W/m² | - |
| 1778054716 | 18.33° C | 79% | 1010.6 hPa | 0 mm | - | 0 W/m² | - |
| 1778054116 | 18.33° C | 78% | 1010.8 hPa | 0 mm | - | 0 W/m² | - |
| 1778051717 | 18.89° C | 76% | 1011 hPa | 0 mm | - | 0 W/m² | - |
| 1778045118 | 17.78° C | 82% | 1011.5 hPa | 0 mm | - | 0 W/m² | - |
| 1778042719 | 17.78° C | 80% | 1011.6 hPa | 0 mm | - | 0 W/m² | - |
| 1778042119 | 17.78° C | 81% | 1011.6 hPa | 0 mm | - | 0 W/m² | - |
| 1778040917 | 17.78° C | 82% | 1011.7 hPa | 0 mm | - | 0 W/m² | - |
* Rain latest hour (hover to see other rain measurements)
** Current wind speed in m/s (hover to see current wind gust speed)